Terminal Aerodrome Forecast
Issued by NWS

Home | Current Version | Previous Version | Text Only | Print | Product List | Glossary On
Versions: 1 2 3 4 5 6 7 8 9 10 11 12 13
079
FTUS45 KABQ 102320
TAFROW
TAF
KROW 102320Z 1100/1124 16005KT P6SM SCT250
     FM110200 VRB03KT P6SM BKN250
     FM112100 06006KT P6SM BKN250=

USA.gov is the U.S. government's official web portal to all federal, state and local government web resources and services.